createdAt,value
2022-11-26T00:02:44.222Z,613.55
2022-11-26T00:05:57.607Z,600.28
2022-11-26T00:09:06.406Z,553.35
2022-11-26T00:12:20.274Z,525.88
2022-11-26T00:15:30.580Z,486.53
2022-11-26T00:18:36.508Z,482.03
2022-11-26T00:21:46.400Z,495.44
2022-11-26T00:24:53.476Z,511.86
2022-11-26T00:28:02.616Z,483.05
2022-11-26T00:31:17.640Z,464.11
2022-11-26T00:34:24.419Z,477.29
2022-11-26T00:37:46.202Z,490.00
2022-11-26T00:40:53.105Z,516.21
2022-11-26T00:43:59.058Z,491.71
2022-11-26T00:47:06.111Z,462.87
2022-11-26T00:50:18.706Z,444.74
2022-11-26T00:53:30.318Z,439.14
2022-11-26T00:56:38.247Z,456.40
2022-11-26T00:59:45.212Z,447.10
2022-11-26T01:02:52.185Z,426.64
2022-11-26T01:06:02.654Z,429.29
2022-11-26T01:09:22.238Z,430.53
2022-11-26T01:12:29.009Z,445.55
2022-11-26T01:15:34.877Z,468.84
2022-11-26T01:18:41.796Z,482.82
2022-11-26T01:21:47.852Z,478.95
2022-11-26T01:24:57.376Z,456.56
2022-11-26T01:28:03.487Z,468.96
2022-11-26T01:31:18.582Z,475.07
2022-11-26T01:34:24.529Z,475.40
2022-11-26T01:37:31.374Z,484.31
2022-11-26T01:41:05.471Z,495.34
2022-11-26T01:44:22.156Z,501.62
2022-11-26T01:47:31.731Z,489.86
2022-11-26T01:51:00.672Z,479.09
2022-11-26T01:54:07.031Z,451.09
2022-11-26T01:57:23.938Z,444.99
2022-11-26T02:00:29.972Z,435.21
2022-11-26T02:03:47.049Z,436.18
2022-11-26T02:06:55.239Z,423.91
2022-11-26T02:10:02.135Z,420.78
2022-11-26T02:13:10.971Z,413.40
2022-11-26T02:16:37.200Z,403.56
2022-11-26T02:20:28.203Z,403.04
2022-11-26T02:24:12.745Z,405.78
2022-11-26T02:28:11.870Z,401.42
2022-11-26T02:31:32.720Z,390.74
2022-11-26T02:34:51.659Z,392.93
2022-11-26T02:38:05.918Z,396.12
2022-11-26T02:41:12.799Z,388.24
2022-11-26T02:44:24.194Z,404.90
2022-11-26T02:47:37.668Z,406.65
2022-11-26T02:50:51.614Z,420.36
2022-11-26T02:54:00.060Z,424.17
2022-11-26T02:57:14.947Z,426.18
2022-11-26T03:00:23.504Z,430.71
2022-11-26T03:03:41.443Z,430.19
2022-11-26T03:06:50.965Z,423.81
2022-11-26T03:10:00.953Z,417.54
2022-11-26T03:13:07.751Z,395.57
2022-11-26T03:16:13.694Z,387.45
2022-11-26T03:19:23.108Z,388.06
2022-11-26T03:22:29.677Z,388.37
2022-11-26T03:25:37.014Z,382.53
2022-11-26T03:28:43.068Z,389.64
2022-11-26T03:31:49.947Z,401.41
2022-11-26T03:34:58.574Z,402.71
2022-11-26T03:38:05.347Z,400.38
2022-11-26T03:41:11.277Z,396.11
2022-11-26T03:44:18.459Z,398.55
2022-11-26T03:47:24.794Z,408.19
2022-11-26T03:50:34.155Z,398.56
2022-11-26T03:53:40.035Z,399.49
2022-11-26T03:56:46.783Z,491.56
2022-11-26T03:59:52.820Z,475.52
2022-11-26T04:02:59.683Z,399.76
2022-11-26T04:06:09.735Z,391.14
2022-11-26T04:09:16.691Z,391.04
2022-11-26T04:12:22.736Z,391.61
2022-11-26T04:15:29.483Z,407.88
2022-11-26T04:18:36.025Z,390.92
2022-11-26T04:21:45.635Z,374.83
2022-11-26T04:24:51.764Z,373.49
2022-11-26T04:27:59.146Z,373.53
2022-11-26T04:31:05.141Z,352.65
2022-11-26T04:34:11.916Z,351.59
2022-11-26T04:37:20.525Z,361.68
2022-11-26T04:40:27.250Z,383.46
2022-11-26T04:43:33.372Z,370.78
2022-11-26T04:46:40.194Z,379.31
2022-11-26T04:49:46.181Z,362.53
2022-11-26T04:52:55.782Z,386.58
2022-11-26T04:56:01.781Z,389.85
2022-11-26T04:59:08.502Z,371.87
2022-11-26T05:02:14.867Z,375.98
2022-11-26T05:05:21.979Z,378.45
2022-11-26T05:08:30.537Z,379.98
2022-11-26T05:11:37.291Z,379.41
2022-11-26T05:14:43.257Z,382.53
2022-11-26T05:17:49.969Z,392.02
2022-11-26T05:20:55.912Z,395.36
2022-11-26T05:24:05.469Z,395.47
2022-11-26T05:27:12.435Z,390.50
2022-11-26T05:30:19.781Z,390.28
2022-11-26T05:33:25.685Z,390.21
2022-11-26T05:36:32.371Z,405.28
2022-11-26T05:39:41.079Z,412.58
2022-11-26T05:42:48.214Z,415.09
2022-11-26T05:45:54.193Z,421.34
2022-11-26T05:49:01.142Z,420.69
2022-11-26T05:52:07.318Z,441.19
2022-11-26T05:55:16.731Z,477.70
2022-11-26T05:58:22.944Z,430.13
2022-11-26T06:01:29.751Z,402.80
2022-11-26T06:04:36.726Z,405.12
2022-11-26T06:07:45.092Z,390.39
2022-11-26T06:10:53.916Z,396.55
2022-11-26T06:14:00.639Z,438.42
2022-11-26T06:17:06.615Z,633.72
2022-11-26T06:20:15.609Z,541.82
2022-11-26T06:23:21.604Z,460.48
2022-11-26T06:26:31.173Z,408.58
2022-11-26T06:29:37.405Z,370.68
2022-11-26T06:32:44.217Z,353.93
2022-11-26T06:35:50.129Z,384.83
2022-11-26T06:38:56.778Z,398.35
2022-11-26T06:42:05.319Z,356.47
2022-11-26T06:45:14.211Z,392.42
2022-11-26T06:48:20.131Z,396.70
2022-11-26T06:51:27.974Z,331.42
2022-11-26T06:54:34.124Z,292.03
2022-11-26T06:57:43.450Z,284.13
2022-11-26T07:00:49.397Z,284.06
2022-11-26T07:03:56.855Z,267.56
2022-11-26T07:07:02.825Z,270.81
2022-11-26T07:10:11.395Z,260.47
2022-11-26T07:13:20.014Z,247.05
2022-11-26T07:16:28.146Z,242.72
2022-11-26T07:19:34.217Z,237.87
2022-11-26T07:22:41.247Z,239.36
2022-11-26T07:25:47.347Z,243.16
2022-11-26T07:28:56.982Z,240.18
2022-11-26T07:32:03.015Z,238.34
2022-11-26T07:35:11.313Z,241.72
2022-11-26T07:38:17.418Z,238.93
2022-11-26T07:41:25.672Z,221.90
2022-11-26T07:44:34.551Z,221.34
2022-11-26T07:47:41.523Z,219.64
2022-11-26T07:50:48.148Z,225.89
2022-11-26T07:53:56.573Z,225.14
2022-11-26T07:57:02.521Z,224.25
2022-11-26T08:00:14.096Z,229.77
2022-11-26T08:03:20.041Z,248.62
2022-11-26T08:06:30.484Z,261.35
2022-11-26T08:09:36.667Z,317.28
2022-11-26T08:12:43.795Z,368.94
2022-11-26T08:15:54.223Z,355.44
2022-11-26T08:19:04.077Z,391.92
2022-11-26T08:22:10.095Z,427.32
2022-11-26T08:25:16.925Z,443.21
2022-11-26T08:28:23.197Z,463.27
2022-11-26T08:31:35.165Z,424.44
2022-11-26T08:34:42.300Z,403.96
2022-11-26T08:37:49.100Z,415.99
2022-11-26T08:40:55.280Z,439.79
2022-11-26T08:44:06.517Z,459.46
2022-11-26T08:47:16.787Z,532.51
2022-11-26T08:50:23.635Z,554.82
2022-11-26T08:53:32.427Z,500.10
2022-11-26T08:56:40.236Z,480.18
2022-11-26T08:59:46.111Z,475.08
2022-11-26T09:02:55.511Z,488.96
2022-11-26T09:06:04.577Z,489.05
2022-11-26T09:09:15.857Z,495.20
2022-11-26T09:12:22.092Z,514.89
2022-11-26T09:15:29.078Z,515.40
2022-11-26T09:18:37.592Z,554.97
2022-11-26T09:21:44.442Z,510.38
2022-11-26T09:24:50.459Z,516.29
2022-11-26T09:27:57.257Z,458.30
2022-11-26T09:31:04.880Z,458.02
2022-11-26T09:34:15.435Z,408.89
2022-11-26T09:37:21.298Z,376.06
2022-11-26T09:40:50.649Z,357.51
2022-11-26T09:44:22.460Z,354.93
2022-11-26T09:47:38.866Z,372.71
2022-11-26T09:50:54.005Z,359.69
2022-11-26T09:54:04.701Z,387.17
2022-11-26T09:57:30.563Z,417.55
2022-11-26T10:00:44.174Z,437.86
2022-11-26T10:03:50.474Z,595.08
2022-11-26T10:07:17.517Z,557.38
2022-11-26T10:10:35.408Z,462.62
2022-11-26T10:13:57.399Z,511.01
2022-11-26T10:17:29.197Z,616.72
2022-11-26T10:21:18.210Z,643.10
2022-11-26T10:24:39.518Z,568.62
2022-11-26T10:27:47.206Z,579.65
2022-11-26T10:31:02.727Z,480.80
2022-11-26T10:34:20.260Z,433.48
2022-11-26T10:37:29.268Z,390.23
2022-11-26T10:40:39.421Z,418.29
2022-11-26T10:43:45.486Z,396.67
2022-11-26T10:46:52.243Z,453.94
2022-11-26T10:53:58.697Z,363.71
2022-11-26T10:57:21.981Z,325.93
2022-11-26T11:00:42.169Z,302.91
2022-11-26T11:04:10.772Z,293.51
2022-11-26T11:07:44.312Z,323.94
2022-11-26T11:10:59.620Z,292.25
2022-11-26T11:14:09.051Z,279.93
2022-11-26T11:17:36.464Z,266.62
2022-11-26T11:20:55.006Z,281.90
2022-11-26T11:24:12.363Z,280.13
2022-11-26T11:27:30.982Z,260.99
2022-11-26T11:30:43.624Z,259.26
2022-11-26T11:33:52.155Z,253.70
2022-11-26T11:37:11.728Z,249.88
2022-11-26T11:40:27.756Z,259.90
2022-11-26T11:43:40.040Z,284.01
2022-11-26T11:47:24.484Z,250.94
2022-11-26T11:50:39.323Z,257.43
2022-11-26T11:54:07.713Z,270.46
2022-11-26T11:57:38.355Z,274.35
2022-11-26T12:00:58.472Z,286.16
2022-11-26T12:04:46.341Z,288.79
2022-11-26T12:08:10.948Z,314.14
2022-11-26T12:11:41.163Z,366.54
2022-11-26T12:14:55.453Z,362.28
2022-11-26T12:18:16.419Z,373.54
2022-11-26T12:21:42.506Z,504.94
2022-11-26T12:24:58.035Z,517.37
2022-11-26T12:28:18.180Z,461.80
2022-11-26T12:31:35.864Z,466.88
2022-11-26T12:34:52.947Z,546.61
2022-11-26T12:38:10.874Z,512.46
2022-11-26T12:41:27.500Z,461.37
2022-11-26T12:44:43.091Z,414.74
2022-11-26T12:48:01.058Z,369.84
2022-11-26T12:51:27.467Z,424.04
2022-11-26T12:54:56.929Z,447.51
2022-11-26T12:58:17.091Z,467.85
2022-11-26T13:01:24.648Z,421.22
2022-11-26T13:04:39.435Z,394.33
2022-11-26T13:08:15.388Z,384.25
2022-11-26T13:11:43.851Z,352.83
2022-11-26T13:15:04.108Z,289.05
2022-11-26T13:18:32.606Z,288.87
2022-11-26T13:22:04.140Z,262.44
2022-11-26T13:25:47.592Z,271.71
2022-11-26T13:29:33.028Z,248.60
2022-11-26T13:33:32.400Z,235.17
2022-11-26T13:37:09.550Z,241.17
2022-11-26T13:40:57.375Z,279.18
2022-11-26T13:44:42.415Z,309.84
2022-11-26T13:47:58.154Z,311.30
2022-11-26T13:51:18.980Z,262.78
2022-11-26T13:54:33.871Z,252.62
2022-11-26T13:57:49.355Z,249.28
2022-11-26T14:00:58.080Z,254.44
2022-11-26T14:04:08.084Z,249.34
2022-11-26T14:07:24.134Z,240.08
2022-11-26T14:10:46.472Z,251.91
2022-11-26T14:14:37.663Z,272.61
2022-11-26T14:18:00.339Z,308.60
2022-11-26T14:21:16.821Z,286.99
2022-11-26T14:25:02.802Z,266.43
2022-11-26T14:28:13.406Z,257.44
2022-11-26T14:31:27.926Z,249.19
2022-11-26T14:34:44.401Z,275.44
2022-11-26T14:37:57.024Z,259.77
2022-11-26T14:41:05.622Z,260.67
2022-11-26T14:44:17.589Z,251.02
2022-11-26T14:47:25.771Z,252.36
2022-11-26T14:50:39.013Z,258.28
2022-11-26T14:53:51.757Z,261.91
2022-11-26T14:57:10.518Z,259.04
2022-11-26T15:00:27.997Z,250.04
2022-11-26T15:03:35.378Z,255.48
2022-11-26T15:06:46.336Z,270.31
2022-11-26T15:10:05.592Z,468.50
2022-11-26T15:13:26.237Z,433.33
2022-11-26T15:16:41.680Z,475.01
2022-11-26T15:19:52.023Z,526.65
2022-11-26T15:23:03.149Z,532.40
2022-11-26T15:26:09.949Z,468.80
2022-11-26T15:29:41.417Z,434.23
2022-11-26T15:32:47.520Z,427.77
2022-11-26T15:35:57.520Z,421.76
2022-11-26T15:39:08.217Z,491.61
2022-11-26T15:42:32.595Z,737.07
2022-11-26T15:45:44.568Z,688.81
2022-11-26T15:48:57.222Z,622.18
2022-11-26T15:52:09.275Z,579.62
2022-11-26T15:55:33.257Z,621.23
2022-11-26T15:58:44.521Z,695.38
2022-11-26T16:01:54.071Z,580.76
2022-11-26T16:05:02.342Z,460.37
2022-11-26T16:08:30.495Z,412.90
2022-11-26T16:11:39.401Z,392.07
2022-11-26T16:14:46.592Z,371.73
2022-11-26T16:17:56.745Z,354.90
2022-11-26T16:21:11.783Z,366.21
2022-11-26T16:24:33.751Z,277.25
2022-11-26T16:27:40.807Z,275.52
2022-11-26T16:30:48.542Z,335.01
2022-11-26T16:33:58.917Z,343.61
2022-11-26T16:37:19.205Z,357.91
2022-11-26T16:40:27.471Z,308.82
2022-11-26T16:43:33.826Z,277.43
2022-11-26T16:46:42.480Z,259.07
2022-11-26T16:49:51.891Z,250.98
2022-11-26T16:52:59.244Z,249.02
2022-11-26T16:56:05.369Z,247.49
2022-11-26T16:59:28.821Z,276.51
2022-11-26T17:02:38.167Z,267.88
2022-11-26T17:05:47.800Z,265.01
2022-11-26T17:08:55.020Z,285.57
2022-11-26T17:12:01.900Z,379.94
2022-11-26T17:15:09.105Z,402.96
2022-11-26T17:18:22.416Z,378.90
2022-11-26T17:21:31.158Z,353.86
2022-11-26T17:24:38.354Z,389.57
2022-11-26T17:27:45.642Z,400.58
2022-11-26T17:30:53.732Z,363.30
2022-11-26T17:33:59.911Z,393.73
2022-11-26T17:37:16.879Z,417.83
2022-11-26T17:40:27.293Z,354.48
2022-11-26T17:43:34.527Z,344.76
2022-11-26T17:47:08.995Z,337.26
2022-11-26T17:50:09.973Z,345.00
2022-11-26T17:53:18.515Z,415.99
2022-11-26T17:56:27.587Z,395.81
2022-11-26T17:59:34.108Z,394.57
2022-11-26T18:02:41.156Z,367.60
2022-11-26T18:05:47.301Z,352.22
2022-11-26T18:08:56.733Z,354.27
2022-11-26T18:12:04.456Z,381.63
2022-11-26T18:15:12.446Z,465.34
2022-11-26T18:18:18.454Z,485.32
2022-11-26T18:21:25.207Z,463.19
2022-11-26T18:24:34.111Z,496.97
2022-11-26T18:27:40.924Z,480.78
2022-11-26T18:30:47.037Z,463.98
2022-11-26T18:33:54.470Z,481.26
2022-11-26T18:37:00.481Z,438.39
2022-11-26T18:40:14.144Z,476.41
2022-11-26T18:43:20.257Z,532.88
2022-11-26T18:46:27.307Z,493.95
2022-11-26T18:49:33.525Z,549.21
2022-11-26T18:52:43.225Z,613.01
2022-11-26T18:55:52.061Z,576.23
2022-11-26T18:58:59.615Z,593.81
2022-11-26T19:02:06.065Z,618.13
2022-11-26T19:05:13.053Z,656.18
2022-11-26T19:08:19.847Z,596.87
2022-11-26T19:11:30.050Z,558.02
2022-11-26T19:14:35.948Z,587.00
2022-11-26T19:17:42.764Z,534.93
2022-11-26T19:20:55.643Z,576.78
2022-11-26T19:24:06.517Z,483.82
2022-11-26T19:27:16.571Z,467.18
2022-11-26T19:30:23.800Z,466.98
2022-11-26T19:33:32.672Z,453.88
2022-11-26T19:36:41.050Z,459.22
2022-11-26T19:39:47.887Z,462.97
2022-11-26T19:42:57.378Z,461.27
2022-11-26T19:46:08.903Z,455.34
2022-11-26T19:49:17.596Z,461.16
2022-11-26T19:52:23.584Z,543.80
2022-11-26T19:55:30.396Z,647.72
2022-11-26T19:58:40.353Z,636.64
2022-11-26T20:01:47.284Z,686.86
2022-11-26T20:04:53.235Z,623.86
2022-11-26T20:08:00.161Z,616.41
2022-11-26T20:11:07.683Z,644.14
2022-11-26T20:14:18.319Z,711.23
2022-11-26T20:17:24.651Z,736.44
2022-11-26T20:20:31.374Z,689.93
2022-11-26T20:23:37.296Z,790.64
2022-11-26T20:26:48.819Z,676.37
2022-11-26T20:29:57.288Z,605.95
2022-11-26T20:33:04.039Z,644.07
2022-11-26T20:36:13.250Z,536.14
2022-11-26T20:39:22.501Z,462.01
2022-11-26T20:42:28.482Z,451.88
2022-11-26T20:45:38.856Z,480.12
2022-11-26T20:48:47.596Z,484.62
2022-11-26T20:51:54.350Z,945.58
2022-11-26T20:55:00.255Z,782.97
2022-11-26T20:58:07.031Z,723.22
2022-11-26T21:01:21.139Z,560.87
2022-11-26T21:04:27.905Z,621.10
2022-11-26T21:07:34.004Z,589.46
2022-11-26T21:10:42.880Z,540.92
2022-11-26T21:13:49.034Z,555.04
2022-11-26T21:16:58.426Z,519.32
2022-11-26T21:20:04.519Z,519.71
2022-11-26T21:23:13.191Z,557.70
2022-11-26T21:26:22.157Z,526.20
2022-11-26T21:29:28.996Z,475.94
2022-11-26T21:32:37.679Z,457.17
2022-11-26T21:35:44.598Z,469.79
2022-11-26T21:38:52.614Z,453.84
2022-11-26T21:41:59.323Z,488.81
2022-11-26T21:45:05.466Z,465.19
2022-11-26T21:48:14.900Z,474.06
2022-11-26T21:51:22.892Z,471.86
2022-11-26T21:54:30.683Z,482.12
2022-11-26T21:57:38.701Z,449.32
2022-11-26T22:00:47.046Z,720.35
2022-11-26T22:03:59.235Z,478.06
2022-11-26T22:07:06.795Z,358.91
2022-11-26T22:10:14.568Z,354.11
2022-11-26T22:13:21.337Z,377.79
2022-11-26T22:16:30.686Z,480.21
2022-11-26T22:19:40.135Z,347.74
2022-11-26T22:22:46.263Z,345.86
2022-11-26T22:25:53.452Z,358.45
2022-11-26T22:29:00.109Z,551.73
2022-11-26T22:32:07.433Z,383.10
2022-11-26T22:35:16.157Z,590.07
2022-11-26T22:38:22.871Z,366.62
2022-11-26T22:41:29.511Z,304.66
2022-11-26T22:44:36.967Z,310.76
2022-11-26T22:47:42.873Z,311.68
2022-11-26T22:50:57.171Z,313.80
2022-11-26T22:54:05.227Z,312.66
2022-11-26T22:57:12.008Z,320.50
2022-11-26T23:00:51.818Z,319.56
2022-11-26T23:04:00.895Z,342.63
2022-11-26T23:07:09.852Z,337.25
2022-11-26T23:10:16.698Z,339.95
2022-11-26T23:13:22.766Z,317.42
2022-11-26T23:16:31.094Z,319.85
2022-11-26T23:19:37.233Z,356.06
2022-11-26T23:22:46.595Z,357.56
2022-11-26T23:25:52.546Z,1268.13
2022-11-26T23:29:02.006Z,2133.09
2022-11-26T23:32:08.137Z,344.77
2022-11-26T23:35:15.264Z,336.28
2022-11-26T23:38:24.048Z,344.94
2022-11-26T23:41:31.676Z,345.80
2022-11-26T23:44:37.576Z,346.98
2022-11-26T23:47:44.204Z,346.81
2022-11-26T23:50:50.062Z,333.36
2022-11-26T23:54:00.145Z,315.76
2022-11-26T23:57:09.249Z,326.97
